sensor_id;sensor_type;location;lat;lon;timestamp;temperature;humidity
12622;DHT22;6376;48.182;-1.644;2024-01-30T00:01:15;12.70;92.20
12622;DHT22;6376;48.182;-1.644;2024-01-30T00:03:41;12.70;92.10
12622;DHT22;6376;48.182;-1.644;2024-01-30T00:06:07;12.70;92.20
12622;DHT22;6376;48.182;-1.644;2024-01-30T00:08:33;12.70;92.10
12622;DHT22;6376;48.182;-1.644;2024-01-30T00:10:59;12.70;92.00
12622;DHT22;6376;48.182;-1.644;2024-01-30T00:13:25;12.70;92.20
12622;DHT22;6376;48.182;-1.644;2024-01-30T00:15:50;12.80;92.30
12622;DHT22;6376;48.182;-1.644;2024-01-30T00:18:16;12.70;92.30
12622;DHT22;6376;48.182;-1.644;2024-01-30T00:20:41;12.70;92.10
12622;DHT22;6376;48.182;-1.644;2024-01-30T00:23:08;12.70;92.10
12622;DHT22;6376;48.182;-1.644;2024-01-30T00:25:34;12.70;92.10
12622;DHT22;6376;48.182;-1.644;2024-01-30T00:27:59;12.70;92.20
12622;DHT22;6376;48.182;-1.644;2024-01-30T00:30:25;12.70;92.10
12622;DHT22;6376;48.182;-1.644;2024-01-30T00:32:51;12.70;92.10
12622;DHT22;6376;48.182;-1.644;2024-01-30T00:35:16;12.70;92.10
12622;DHT22;6376;48.182;-1.644;2024-01-30T00:37:42;12.70;92.10
12622;DHT22;6376;48.182;-1.644;2024-01-30T00:40:08;12.70;92.00
12622;DHT22;6376;48.182;-1.644;2024-01-30T00:42:35;12.70;92.00
12622;DHT22;6376;48.182;-1.644;2024-01-30T00:45:01;12.70;92.00
12622;DHT22;6376;48.182;-1.644;2024-01-30T00:47:27;12.70;92.00
12622;DHT22;6376;48.182;-1.644;2024-01-30T00:49:54;12.70;92.00
12622;DHT22;6376;48.182;-1.644;2024-01-30T00:52:20;12.70;92.10
12622;DHT22;6376;48.182;-1.644;2024-01-30T00:54:45;12.70;92.10
12622;DHT22;6376;48.182;-1.644;2024-01-30T00:57:11;12.70;92.10
12622;DHT22;6376;48.182;-1.644;2024-01-30T00:59:36;12.70;92.10
12622;DHT22;6376;48.182;-1.644;2024-01-30T01:02:03;12.70;92.00
12622;DHT22;6376;48.182;-1.644;2024-01-30T01:04:29;12.70;92.20
12622;DHT22;6376;48.182;-1.644;2024-01-30T01:06:55;12.70;92.10
12622;DHT22;6376;48.182;-1.644;2024-01-30T01:09:20;12.70;92.10
12622;DHT22;6376;48.182;-1.644;2024-01-30T01:11:46;12.70;92.10
12622;DHT22;6376;48.182;-1.644;2024-01-30T01:14:11;12.70;92.00
12622;DHT22;6376;48.182;-1.644;2024-01-30T01:16:37;12.70;92.10
12622;DHT22;6376;48.182;-1.644;2024-01-30T01:19:03;12.70;92.00
12622;DHT22;6376;48.182;-1.644;2024-01-30T01:21:28;12.70;91.90
12622;DHT22;6376;48.182;-1.644;2024-01-30T01:23:54;12.70;92.10
12622;DHT22;6376;48.182;-1.644;2024-01-30T01:26:20;12.70;92.30
12622;DHT22;6376;48.182;-1.644;2024-01-30T01:28:46;12.70;92.10
12622;DHT22;6376;48.182;-1.644;2024-01-30T01:31:12;12.70;92.10
12622;DHT22;6376;48.182;-1.644;2024-01-30T01:33:38;12.70;92.10
12622;DHT22;6376;48.182;-1.644;2024-01-30T01:36:03;12.70;92.20
12622;DHT22;6376;48.182;-1.644;2024-01-30T01:38:29;12.70;92.20
12622;DHT22;6376;48.182;-1.644;2024-01-30T01:40:55;12.70;92.10
12622;DHT22;6376;48.182;-1.644;2024-01-30T01:43:21;12.70;92.10
12622;DHT22;6376;48.182;-1.644;2024-01-30T01:45:46;12.70;91.70
12622;DHT22;6376;48.182;-1.644;2024-01-30T01:48:12;12.70;91.60
12622;DHT22;6376;48.182;-1.644;2024-01-30T01:50:39;12.70;91.90
12622;DHT22;6376;48.182;-1.644;2024-01-30T01:53:07;12.70;91.60
12622;DHT22;6376;48.182;-1.644;2024-01-30T01:55:34;12.70;91.60
12622;DHT22;6376;48.182;-1.644;2024-01-30T01:58:00;12.70;91.60
12622;DHT22;6376;48.182;-1.644;2024-01-30T02:00:27;12.70;91.70
12622;DHT22;6376;48.182;-1.644;2024-01-30T02:02:53;12.70;91.60
12622;DHT22;6376;48.182;-1.644;2024-01-30T02:05:20;12.70;91.60
12622;DHT22;6376;48.182;-1.644;2024-01-30T02:07:46;12.70;91.60
12622;DHT22;6376;48.182;-1.644;2024-01-30T02:10:12;12.70;91.60
12622;DHT22;6376;48.182;-1.644;2024-01-30T02:12:38;12.70;91.70
12622;DHT22;6376;48.182;-1.644;2024-01-30T02:15:05;12.70;91.60
12622;DHT22;6376;48.182;-1.644;2024-01-30T02:17:31;12.70;91.60
12622;DHT22;6376;48.182;-1.644;2024-01-30T02:19:57;12.70;91.60
12622;DHT22;6376;48.182;-1.644;2024-01-30T02:22:22;12.70;91.60
12622;DHT22;6376;48.182;-1.644;2024-01-30T02:24:49;12.70;91.60
12622;DHT22;6376;48.182;-1.644;2024-01-30T02:27:15;12.70;91.50
12622;DHT22;6376;48.182;-1.644;2024-01-30T02:29:41;12.70;91.50
12622;DHT22;6376;48.182;-1.644;2024-01-30T02:32:06;12.70;91.50
12622;DHT22;6376;48.182;-1.644;2024-01-30T02:34:33;12.70;91.50
12622;DHT22;6376;48.182;-1.644;2024-01-30T02:36:58;12.70;91.50
12622;DHT22;6376;48.182;-1.644;2024-01-30T02:39:24;12.60;91.50
12622;DHT22;6376;48.182;-1.644;2024-01-30T02:41:50;12.70;91.50
12622;DHT22;6376;48.182;-1.644;2024-01-30T02:44:15;12.70;91.50
12622;DHT22;6376;48.182;-1.644;2024-01-30T02:46:41;12.70;91.50
12622;DHT22;6376;48.182;-1.644;2024-01-30T02:49:06;12.60;91.50
12622;DHT22;6376;48.182;-1.644;2024-01-30T02:51:32;12.70;91.50
12622;DHT22;6376;48.182;-1.644;2024-01-30T02:53:58;12.60;91.50
12622;DHT22;6376;48.182;-1.644;2024-01-30T02:56:23;12.70;91.50
12622;DHT22;6376;48.182;-1.644;2024-01-30T02:58:49;12.70;91.50
12622;DHT22;6376;48.182;-1.644;2024-01-30T03:01:14;12.70;91.50
12622;DHT22;6376;48.182;-1.644;2024-01-30T03:03:40;12.60;91.50
12622;DHT22;6376;48.182;-1.644;2024-01-30T03:06:06;12.60;91.50
12622;DHT22;6376;48.182;-1.644;2024-01-30T03:08:32;12.60;91.50
12622;DHT22;6376;48.182;-1.644;2024-01-30T03:11:00;12.60;91.50
12622;DHT22;6376;48.182;-1.644;2024-01-30T03:13:25;12.60;91.50
12622;DHT22;6376;48.182;-1.644;2024-01-30T03:15:51;12.60;91.50
12622;DHT22;6376;48.182;-1.644;2024-01-30T03:18:17;12.60;91.50
12622;DHT22;6376;48.182;-1.644;2024-01-30T03:20:43;12.60;91.50
12622;DHT22;6376;48.182;-1.644;2024-01-30T03:23:09;12.60;91.50
12622;DHT22;6376;48.182;-1.644;2024-01-30T03:25:34;12.60;91.50
12622;DHT22;6376;48.182;-1.644;2024-01-30T03:28:00;12.60;91.50
12622;DHT22;6376;48.182;-1.644;2024-01-30T03:30:26;12.60;91.50
12622;DHT22;6376;48.182;-1.644;2024-01-30T03:32:51;12.60;91.50
12622;DHT22;6376;48.182;-1.644;2024-01-30T03:35:18;12.60;91.50
12622;DHT22;6376;48.182;-1.644;2024-01-30T03:37:44;12.60;91.50
12622;DHT22;6376;48.182;-1.644;2024-01-30T03:40:10;12.60;91.50
12622;DHT22;6376;48.182;-1.644;2024-01-30T03:42:36;12.60;91.40
12622;DHT22;6376;48.182;-1.644;2024-01-30T03:45:02;12.60;91.40
12622;DHT22;6376;48.182;-1.644;2024-01-30T03:47:27;12.60;91.50
12622;DHT22;6376;48.182;-1.644;2024-01-30T03:49:53;12.60;91.50
12622;DHT22;6376;48.182;-1.644;2024-01-30T03:52:19;12.60;91.50
12622;DHT22;6376;48.182;-1.644;2024-01-30T03:54:44;12.60;91.40
12622;DHT22;6376;48.182;-1.644;2024-01-30T03:57:10;12.60;91.40
12622;DHT22;6376;48.182;-1.644;2024-01-30T03:59:36;12.60;91.40
12622;DHT22;6376;48.182;-1.644;2024-01-30T04:02:02;12.60;91.40
12622;DHT22;6376;48.182;-1.644;2024-01-30T04:04:28;12.60;91.40
12622;DHT22;6376;48.182;-1.644;2024-01-30T04:06:53;12.60;91.40
12622;DHT22;6376;48.182;-1.644;2024-01-30T04:09:19;12.60;91.40
12622;DHT22;6376;48.182;-1.644;2024-01-30T04:11:44;12.60;91.40
12622;DHT22;6376;48.182;-1.644;2024-01-30T04:14:10;12.60;91.40
12622;DHT22;6376;48.182;-1.644;2024-01-30T04:16:36;12.60;91.40
12622;DHT22;6376;48.182;-1.644;2024-01-30T04:19:02;12.60;91.40
12622;DHT22;6376;48.182;-1.644;2024-01-30T04:21:27;12.60;91.40
12622;DHT22;6376;48.182;-1.644;2024-01-30T04:23:53;12.60;91.40
12622;DHT22;6376;48.182;-1.644;2024-01-30T04:26:18;12.60;91.40
12622;DHT22;6376;48.182;-1.644;2024-01-30T04:28:44;12.60;91.40
12622;DHT22;6376;48.182;-1.644;2024-01-30T04:31:10;12.60;91.40
12622;DHT22;6376;48.182;-1.644;2024-01-30T04:33:36;12.60;91.40
12622;DHT22;6376;48.182;-1.644;2024-01-30T04:36:02;12.60;91.40
12622;DHT22;6376;48.182;-1.644;2024-01-30T04:38:29;12.60;91.40
12622;DHT22;6376;48.182;-1.644;2024-01-30T04:40:54;12.60;91.30
12622;DHT22;6376;48.182;-1.644;2024-01-30T04:43:20;12.60;91.30
12622;DHT22;6376;48.182;-1.644;2024-01-30T04:45:47;12.60;91.30
12622;DHT22;6376;48.182;-1.644;2024-01-30T04:48:12;12.60;91.30
12622;DHT22;6376;48.182;-1.644;2024-01-30T04:50:39;12.60;91.30
12622;DHT22;6376;48.182;-1.644;2024-01-30T04:53:04;12.60;91.30
12622;DHT22;6376;48.182;-1.644;2024-01-30T04:55:30;12.60;91.30
12622;DHT22;6376;48.182;-1.644;2024-01-30T04:57:55;12.50;91.30
12622;DHT22;6376;48.182;-1.644;2024-01-30T05:00:21;12.50;91.30
12622;DHT22;6376;48.182;-1.644;2024-01-30T05:02:47;12.60;91.30
12622;DHT22;6376;48.182;-1.644;2024-01-30T05:05:12;12.50;91.30
12622;DHT22;6376;48.182;-1.644;2024-01-30T05:07:40;12.50;91.30
12622;DHT22;6376;48.182;-1.644;2024-01-30T05:10:06;12.50;91.30
12622;DHT22;6376;48.182;-1.644;2024-01-30T05:12:32;12.60;91.30
12622;DHT22;6376;48.182;-1.644;2024-01-30T05:14:57;12.60;91.30
12622;DHT22;6376;48.182;-1.644;2024-01-30T05:17:23;12.60;91.30
12622;DHT22;6376;48.182;-1.644;2024-01-30T05:19:48;12.50;91.30
12622;DHT22;6376;48.182;-1.644;2024-01-30T05:22:14;12.50;91.30
12622;DHT22;6376;48.182;-1.644;2024-01-30T05:24:44;12.50;91.30
12622;DHT22;6376;48.182;-1.644;2024-01-30T05:27:10;12.50;91.30
12622;DHT22;6376;48.182;-1.644;2024-01-30T05:29:35;12.50;91.30
12622;DHT22;6376;48.182;-1.644;2024-01-30T05:32:01;12.50;91.30
12622;DHT22;6376;48.182;-1.644;2024-01-30T05:34:27;12.50;91.30
12622;DHT22;6376;48.182;-1.644;2024-01-30T05:36:53;12.50;91.30
12622;DHT22;6376;48.182;-1.644;2024-01-30T05:39:18;12.50;91.30
12622;DHT22;6376;48.182;-1.644;2024-01-30T05:41:44;12.50;91.30
12622;DHT22;6376;48.182;-1.644;2024-01-30T05:44:10;12.50;91.30
12622;DHT22;6376;48.182;-1.644;2024-01-30T05:46:35;12.50;91.30
12622;DHT22;6376;48.182;-1.644;2024-01-30T05:49:01;12.50;91.30
12622;DHT22;6376;48.182;-1.644;2024-01-30T05:51:26;12.50;91.30
12622;DHT22;6376;48.182;-1.644;2024-01-30T05:53:53;12.50;91.30
12622;DHT22;6376;48.182;-1.644;2024-01-30T05:56:19;12.50;91.30
12622;DHT22;6376;48.182;-1.644;2024-01-30T05:58:44;12.50;91.30
12622;DHT22;6376;48.182;-1.644;2024-01-30T06:01:10;12.50;91.20
12622;DHT22;6376;48.182;-1.644;2024-01-30T06:03:36;12.50;91.20
12622;DHT22;6376;48.182;-1.644;2024-01-30T06:06:02;12.50;91.20
12622;DHT22;6376;48.182;-1.644;2024-01-30T06:08:27;12.50;91.20
12622;DHT22;6376;48.182;-1.644;2024-01-30T06:10:53;12.50;91.20
12622;DHT22;6376;48.182;-1.644;2024-01-30T06:13:19;12.50;91.20
12622;DHT22;6376;48.182;-1.644;2024-01-30T06:15:44;12.50;91.20
12622;DHT22;6376;48.182;-1.644;2024-01-30T06:18:10;12.40;91.20
12622;DHT22;6376;48.182;-1.644;2024-01-30T06:20:36;12.50;91.20
12622;DHT22;6376;48.182;-1.644;2024-01-30T06:23:01;12.50;91.20
12622;DHT22;6376;48.182;-1.644;2024-01-30T06:25:27;12.50;91.20
12622;DHT22;6376;48.182;-1.644;2024-01-30T06:27:52;12.50;91.20
12622;DHT22;6376;48.182;-1.644;2024-01-30T06:30:18;12.40;91.10
12622;DHT22;6376;48.182;-1.644;2024-01-30T06:32:44;12.40;91.20
12622;DHT22;6376;48.182;-1.644;2024-01-30T06:35:09;12.40;91.20
12622;DHT22;6376;48.182;-1.644;2024-01-30T06:37:36;12.40;91.20
12622;DHT22;6376;48.182;-1.644;2024-01-30T06:40:02;12.40;91.10
12622;DHT22;6376;48.182;-1.644;2024-01-30T06:42:30;12.40;91.20
12622;DHT22;6376;48.182;-1.644;2024-01-30T06:44:55;12.40;91.20
12622;DHT22;6376;48.182;-1.644;2024-01-30T06:47:21;12.40;91.10
12622;DHT22;6376;48.182;-1.644;2024-01-30T06:49:47;12.40;91.20
12622;DHT22;6376;48.182;-1.644;2024-01-30T06:52:12;12.40;91.10
12622;DHT22;6376;48.182;-1.644;2024-01-30T06:54:38;12.40;91.10
12622;DHT22;6376;48.182;-1.644;2024-01-30T06:57:05;12.40;91.20
12622;DHT22;6376;48.182;-1.644;2024-01-30T06:59:34;12.40;91.10
12622;DHT22;6376;48.182;-1.644;2024-01-30T07:02:00;12.40;91.20
12622;DHT22;6376;48.182;-1.644;2024-01-30T07:04:25;12.30;91.20
12622;DHT22;6376;48.182;-1.644;2024-01-30T07:06:51;12.30;91.20
12622;DHT22;6376;48.182;-1.644;2024-01-30T07:09:18;12.30;91.20
12622;DHT22;6376;48.182;-1.644;2024-01-30T07:11:44;12.30;91.20
12622;DHT22;6376;48.182;-1.644;2024-01-30T07:14:10;12.30;91.60
12622;DHT22;6376;48.182;-1.644;2024-01-30T07:16:35;12.30;91.20
12622;DHT22;6376;48.182;-1.644;2024-01-30T07:19:01;12.30;91.30
12622;DHT22;6376;48.182;-1.644;2024-01-30T07:21:27;12.30;91.20
12622;DHT22;6376;48.182;-1.644;2024-01-30T07:23:56;12.30;91.20
12622;DHT22;6376;48.182;-1.644;2024-01-30T07:26:22;12.30;91.20
12622;DHT22;6376;48.182;-1.644;2024-01-30T07:28:48;12.30;91.20
12622;DHT22;6376;48.182;-1.644;2024-01-30T07:31:13;12.30;91.20
12622;DHT22;6376;48.182;-1.644;2024-01-30T07:33:39;12.30;91.30
12622;DHT22;6376;48.182;-1.644;2024-01-30T07:36:05;12.20;91.30
12622;DHT22;6376;48.182;-1.644;2024-01-30T07:38:34;12.30;91.20
12622;DHT22;6376;48.182;-1.644;2024-01-30T07:40:59;12.20;91.20
12622;DHT22;6376;48.182;-1.644;2024-01-30T07:43:25;12.30;91.20
12622;DHT22;6376;48.182;-1.644;2024-01-30T07:45:51;12.20;91.20
12622;DHT22;6376;48.182;-1.644;2024-01-30T07:48:16;12.20;91.20
12622;DHT22;6376;48.182;-1.644;2024-01-30T07:50:42;12.20;91.20
12622;DHT22;6376;48.182;-1.644;2024-01-30T07:53:08;12.20;91.20
12622;DHT22;6376;48.182;-1.644;2024-01-30T07:55:34;12.20;91.20
12622;DHT22;6376;48.182;-1.644;2024-01-30T07:57:59;12.20;91.20
12622;DHT22;6376;48.182;-1.644;2024-01-30T08:00:25;12.20;91.50
12622;DHT22;6376;48.182;-1.644;2024-01-30T08:02:51;12.20;91.20
12622;DHT22;6376;48.182;-1.644;2024-01-30T08:05:19;12.20;91.10
12622;DHT22;6376;48.182;-1.644;2024-01-30T08:07:47;12.30;91.20
12622;DHT22;6376;48.182;-1.644;2024-01-30T08:10:13;12.30;91.10
12622;DHT22;6376;48.182;-1.644;2024-01-30T08:12:39;12.30;91.20
12622;DHT22;6376;48.182;-1.644;2024-01-30T08:15:05;12.20;91.10
12622;DHT22;6376;48.182;-1.644;2024-01-30T08:17:31;12.30;91.10
12622;DHT22;6376;48.182;-1.644;2024-01-30T08:19:57;12.30;91.10
12622;DHT22;6376;48.182;-1.644;2024-01-30T08:22:22;12.30;91.10
12622;DHT22;6376;48.182;-1.644;2024-01-30T08:24:48;12.30;91.40
12622;DHT22;6376;48.182;-1.644;2024-01-30T08:27:14;12.20;91.00
12622;DHT22;6376;48.182;-1.644;2024-01-30T08:29:40;12.30;91.00
12622;DHT22;6376;48.182;-1.644;2024-01-30T08:32:06;12.40;90.90
12622;DHT22;6376;48.182;-1.644;2024-01-30T08:34:32;12.40;90.90
12622;DHT22;6376;48.182;-1.644;2024-01-30T08:36:58;12.50;90.80
12622;DHT22;6376;48.182;-1.644;2024-01-30T08:39:23;12.50;90.70
12622;DHT22;6376;48.182;-1.644;2024-01-30T08:41:49;12.50;90.90
12622;DHT22;6376;48.182;-1.644;2024-01-30T08:44:15;12.70;90.70
12622;DHT22;6376;48.182;-1.644;2024-01-30T08:46:40;12.80;90.20
12622;DHT22;6376;48.182;-1.644;2024-01-30T08:49:06;12.80;90.00
12622;DHT22;6376;48.182;-1.644;2024-01-30T08:51:31;12.80;89.90
12622;DHT22;6376;48.182;-1.644;2024-01-30T08:53:57;12.80;89.80
12622;DHT22;6376;48.182;-1.644;2024-01-30T08:56:23;12.90;89.60
12622;DHT22;6376;48.182;-1.644;2024-01-30T08:58:48;12.90;89.40
12622;DHT22;6376;48.182;-1.644;2024-01-30T09:01:14;12.90;89.10
12622;DHT22;6376;48.182;-1.644;2024-01-30T09:03:40;13.00;88.70
12622;DHT22;6376;48.182;-1.644;2024-01-30T09:06:10;13.10;88.20
12622;DHT22;6376;48.182;-1.644;2024-01-30T09:08:36;13.20;87.60
12622;DHT22;6376;48.182;-1.644;2024-01-30T09:11:08;13.40;88.00
12622;DHT22;6376;48.182;-1.644;2024-01-30T09:13:33;13.40;86.80
12622;DHT22;6376;48.182;-1.644;2024-01-30T09:15:59;13.50;86.60
12622;DHT22;6376;48.182;-1.644;2024-01-30T09:18:25;13.60;86.30
12622;DHT22;6376;48.182;-1.644;2024-01-30T09:20:50;13.60;86.00
12622;DHT22;6376;48.182;-1.644;2024-01-30T09:23:16;13.70;85.90
12622;DHT22;6376;48.182;-1.644;2024-01-30T09:25:44;13.70;85.60
12622;DHT22;6376;48.182;-1.644;2024-01-30T09:28:09;13.70;85.50
12622;DHT22;6376;48.182;-1.644;2024-01-30T09:30:35;13.70;85.30
12622;DHT22;6376;48.182;-1.644;2024-01-30T09:33:00;13.80;85.00
12622;DHT22;6376;48.182;-1.644;2024-01-30T09:35:26;13.80;84.70
12622;DHT22;6376;48.182;-1.644;2024-01-30T09:37:52;13.90;84.50
12622;DHT22;6376;48.182;-1.644;2024-01-30T09:40:18;13.90;84.20
12622;DHT22;6376;48.182;-1.644;2024-01-30T09:42:47;14.00;84.00
12622;DHT22;6376;48.182;-1.644;2024-01-30T09:45:17;14.10;83.80
12622;DHT22;6376;48.182;-1.644;2024-01-30T09:47:44;14.10;83.50
12622;DHT22;6376;48.182;-1.644;2024-01-30T09:50:11;14.10;83.30
12622;DHT22;6376;48.182;-1.644;2024-01-30T09:52:38;14.20;83.20
12622;DHT22;6376;48.182;-1.644;2024-01-30T09:55:04;14.20;82.90
12622;DHT22;6376;48.182;-1.644;2024-01-30T09:57:31;14.30;82.70
12622;DHT22;6376;48.182;-1.644;2024-01-30T09:59:56;14.30;82.40
12622;DHT22;6376;48.182;-1.644;2024-01-30T10:02:22;14.40;82.20
12622;DHT22;6376;48.182;-1.644;2024-01-30T10:04:49;14.40;82.00
12622;DHT22;6376;48.182;-1.644;2024-01-30T10:07:15;14.40;81.80
12622;DHT22;6376;48.182;-1.644;2024-01-30T10:09:41;14.50;81.70
12622;DHT22;6376;48.182;-1.644;2024-01-30T10:12:07;14.50;81.50
12622;DHT22;6376;48.182;-1.644;2024-01-30T10:14:37;14.60;81.30
12622;DHT22;6376;48.182;-1.644;2024-01-30T10:17:03;14.60;81.20
12622;DHT22;6376;48.182;-1.644;2024-01-30T10:19:29;14.60;81.00
12622;DHT22;6376;48.182;-1.644;2024-01-30T10:21:55;14.70;80.90
12622;DHT22;6376;48.182;-1.644;2024-01-30T10:24:24;14.70;80.80
12622;DHT22;6376;48.182;-1.644;2024-01-30T10:26:50;14.70;80.60
12622;DHT22;6376;48.182;-1.644;2024-01-30T10:29:17;14.70;80.70
12622;DHT22;6376;48.182;-1.644;2024-01-30T10:31:42;14.80;80.80
12622;DHT22;6376;48.182;-1.644;2024-01-30T10:34:08;14.70;80.80
12622;DHT22;6376;48.182;-1.644;2024-01-30T10:36:41;14.80;80.60
12622;DHT22;6376;48.182;-1.644;2024-01-30T10:39:09;14.80;80.30
12622;DHT22;6376;48.182;-1.644;2024-01-30T10:41:44;14.90;80.20
12622;DHT22;6376;48.182;-1.644;2024-01-30T10:44:11;14.90;81.00
12622;DHT22;6376;48.182;-1.644;2024-01-30T10:46:42;14.90;80.20
12622;DHT22;6376;48.182;-1.644;2024-01-30T10:49:09;14.90;80.10
12622;DHT22;6376;48.182;-1.644;2024-01-30T10:51:36;14.90;80.00
12622;DHT22;6376;48.182;-1.644;2024-01-30T10:54:03;15.00;79.90
12622;DHT22;6376;48.182;-1.644;2024-01-30T10:56:32;14.90;80.00
12622;DHT22;6376;48.182;-1.644;2024-01-30T10:58:58;14.80;80.50
12622;DHT22;6376;48.182;-1.644;2024-01-30T11:01:25;14.80;80.90
12622;DHT22;6376;48.182;-1.644;2024-01-30T11:03:51;14.80;80.50
12622;DHT22;6376;48.182;-1.644;2024-01-30T11:06:17;14.60;81.20
12622;DHT22;6376;48.182;-1.644;2024-01-30T11:08:45;14.50;81.90
12622;DHT22;6376;48.182;-1.644;2024-01-30T11:11:10;14.40;82.30
12622;DHT22;6376;48.182;-1.644;2024-01-30T11:13:36;14.30;82.60
12622;DHT22;6376;48.182;-1.644;2024-01-30T11:16:03;14.30;82.60
12622;DHT22;6376;48.182;-1.644;2024-01-30T11:18:30;14.30;82.70
12622;DHT22;6376;48.182;-1.644;2024-01-30T11:20:56;14.30;82.90
12622;DHT22;6376;48.182;-1.644;2024-01-30T11:23:23;14.40;82.30
12622;DHT22;6376;48.182;-1.644;2024-01-30T11:25:49;14.70;81.60
12622;DHT22;6376;48.182;-1.644;2024-01-30T11:28:15;14.80;81.00
12622;DHT22;6376;48.182;-1.644;2024-01-30T11:30:42;14.60;81.30
12622;DHT22;6376;48.182;-1.644;2024-01-30T11:33:12;14.60;81.30
12622;DHT22;6376;48.182;-1.644;2024-01-30T11:35:39;14.50;81.70
12622;DHT22;6376;48.182;-1.644;2024-01-30T11:38:06;14.40;82.10
12622;DHT22;6376;48.182;-1.644;2024-01-30T11:40:33;14.50;82.10
12622;DHT22;6376;48.182;-1.644;2024-01-30T11:43:00;14.50;81.90
12622;DHT22;6376;48.182;-1.644;2024-01-30T11:45:27;14.50;82.00
12622;DHT22;6376;48.182;-1.644;2024-01-30T11:47:53;14.50;81.90
12622;DHT22;6376;48.182;-1.644;2024-01-30T11:50:19;14.50;82.20
12622;DHT22;6376;48.182;-1.644;2024-01-30T11:52:45;14.40;82.30
12622;DHT22;6376;48.182;-1.644;2024-01-30T11:55:12;14.30;82.70
12622;DHT22;6376;48.182;-1.644;2024-01-30T11:57:38;14.20;83.00
12622;DHT22;6376;48.182;-1.644;2024-01-30T12:00:05;14.20;83.20
12622;DHT22;6376;48.182;-1.644;2024-01-30T12:02:39;14.20;83.30
12622;DHT22;6376;48.182;-1.644;2024-01-30T12:05:06;14.20;83.20
12622;DHT22;6376;48.182;-1.644;2024-01-30T12:07:35;14.20;83.40
12622;DHT22;6376;48.182;-1.644;2024-01-30T12:10:01;14.10;83.50
12622;DHT22;6376;48.182;-1.644;2024-01-30T12:12:28;14.10;83.40
12622;DHT22;6376;48.182;-1.644;2024-01-30T12:14:55;14.10;83.60
12622;DHT22;6376;48.182;-1.644;2024-01-30T12:17:34;14.00;83.60
12622;DHT22;6376;48.182;-1.644;2024-01-30T12:20:20;14.00;83.80
12622;DHT22;6376;48.182;-1.644;2024-01-30T12:22:48;14.00;83.80
12622;DHT22;6376;48.182;-1.644;2024-01-30T12:25:20;14.00;83.30
12622;DHT22;6376;48.182;-1.644;2024-01-30T12:27:47;13.90;83.90
12622;DHT22;6376;48.182;-1.644;2024-01-30T12:30:15;13.70;81.80
12622;DHT22;6376;48.182;-1.644;2024-01-30T12:32:43;13.60;82.30
12622;DHT22;6376;48.182;-1.644;2024-01-30T12:35:17;13.50;82.60
12622;DHT22;6376;48.182;-1.644;2024-01-30T12:37:44;13.40;83.30
12622;DHT22;6376;48.182;-1.644;2024-01-30T12:40:11;13.40;84.00
12622;DHT22;6376;48.182;-1.644;2024-01-30T12:42:39;13.40;84.60
12622;DHT22;6376;48.182;-1.644;2024-01-30T12:45:05;13.40;85.00
12622;DHT22;6376;48.182;-1.644;2024-01-30T12:47:31;13.60;85.20
12622;DHT22;6376;48.182;-1.644;2024-01-30T12:49:57;13.70;85.20
12622;DHT22;6376;48.182;-1.644;2024-01-30T12:52:23;13.80;84.90
12622;DHT22;6376;48.182;-1.644;2024-01-30T12:54:49;13.80;84.10
12622;DHT22;6376;48.182;-1.644;2024-01-30T12:57:15;13.70;83.70
12622;DHT22;6376;48.182;-1.644;2024-01-30T12:59:42;13.70;84.10
12622;DHT22;6376;48.182;-1.644;2024-01-30T13:02:07;13.70;84.30
12622;DHT22;6376;48.182;-1.644;2024-01-30T13:04:34;13.60;84.50
12622;DHT22;6376;48.182;-1.644;2024-01-30T13:07:00;13.60;84.60
12622;DHT22;6376;48.182;-1.644;2024-01-30T13:09:26;13.60;84.70
12622;DHT22;6376;48.182;-1.644;2024-01-30T13:11:52;13.60;84.70
12622;DHT22;6376;48.182;-1.644;2024-01-30T13:14:18;13.60;84.50
12622;DHT22;6376;48.182;-1.644;2024-01-30T13:16:44;13.50;84.60
12622;DHT22;6376;48.182;-1.644;2024-01-30T13:19:09;13.50;84.90
12622;DHT22;6376;48.182;-1.644;2024-01-30T13:21:35;13.50;85.20
12622;DHT22;6376;48.182;-1.644;2024-01-30T13:24:01;13.60;85.30
12622;DHT22;6376;48.182;-1.644;2024-01-30T13:26:27;13.60;85.20
12622;DHT22;6376;48.182;-1.644;2024-01-30T13:28:53;13.70;85.10
12622;DHT22;6376;48.182;-1.644;2024-01-30T13:31:19;13.80;84.70
12622;DHT22;6376;48.182;-1.644;2024-01-30T13:33:45;13.80;84.50
12622;DHT22;6376;48.182;-1.644;2024-01-30T13:36:11;13.80;84.80
12622;DHT22;6376;48.182;-1.644;2024-01-30T13:38:37;13.80;84.20
12622;DHT22;6376;48.182;-1.644;2024-01-30T13:41:03;13.70;83.80
12622;DHT22;6376;48.182;-1.644;2024-01-30T13:43:29;13.60;84.10
12622;DHT22;6376;48.182;-1.644;2024-01-30T13:45:54;13.60;84.40
12622;DHT22;6376;48.182;-1.644;2024-01-30T13:48:20;13.50;84.60
12622;DHT22;6376;48.182;-1.644;2024-01-30T13:50:46;13.50;84.60
12622;DHT22;6376;48.182;-1.644;2024-01-30T13:53:11;13.40;84.80
12622;DHT22;6376;48.182;-1.644;2024-01-30T13:55:37;13.40;84.90
12622;DHT22;6376;48.182;-1.644;2024-01-30T13:58:04;13.40;85.00
12622;DHT22;6376;48.182;-1.644;2024-01-30T14:00:30;13.40;85.20
12622;DHT22;6376;48.182;-1.644;2024-01-30T14:02:56;13.40;85.20
12622;DHT22;6376;48.182;-1.644;2024-01-30T14:05:23;13.40;85.20
12622;DHT22;6376;48.182;-1.644;2024-01-30T14:07:49;13.40;85.30
12622;DHT22;6376;48.182;-1.644;2024-01-30T14:10:15;13.40;85.50
12622;DHT22;6376;48.182;-1.644;2024-01-30T14:12:42;13.30;85.70
12622;DHT22;6376;48.182;-1.644;2024-01-30T14:15:09;13.30;85.60
12622;DHT22;6376;48.182;-1.644;2024-01-30T14:17:35;13.40;85.70
12622;DHT22;6376;48.182;-1.644;2024-01-30T14:20:02;13.30;85.60
12622;DHT22;6376;48.182;-1.644;2024-01-30T14:22:29;13.30;85.50
12622;DHT22;6376;48.182;-1.644;2024-01-30T14:24:54;13.30;85.50
12622;DHT22;6376;48.182;-1.644;2024-01-30T14:27:21;13.30;85.00
12622;DHT22;6376;48.182;-1.644;2024-01-30T14:29:47;13.30;85.10
12622;DHT22;6376;48.182;-1.644;2024-01-30T14:32:13;13.30;85.30
12622;DHT22;6376;48.182;-1.644;2024-01-30T14:34:38;13.30;85.30
12622;DHT22;6376;48.182;-1.644;2024-01-30T14:37:05;13.30;85.30
12622;DHT22;6376;48.182;-1.644;2024-01-30T14:39:30;13.30;85.30
12622;DHT22;6376;48.182;-1.644;2024-01-30T14:41:56;13.30;85.40
12622;DHT22;6376;48.182;-1.644;2024-01-30T14:44:21;13.30;85.40
12622;DHT22;6376;48.182;-1.644;2024-01-30T14:46:48;13.30;85.30
12622;DHT22;6376;48.182;-1.644;2024-01-30T14:49:14;13.30;85.40
12622;DHT22;6376;48.182;-1.644;2024-01-30T14:51:41;13.20;85.40
12622;DHT22;6376;48.182;-1.644;2024-01-30T14:54:06;13.30;85.60
12622;DHT22;6376;48.182;-1.644;2024-01-30T14:56:32;13.20;85.50
12622;DHT22;6376;48.182;-1.644;2024-01-30T14:58:58;13.20;85.60
12622;DHT22;6376;48.182;-1.644;2024-01-30T15:01:24;13.20;85.60
12622;DHT22;6376;48.182;-1.644;2024-01-30T15:03:49;13.20;85.70
12622;DHT22;6376;48.182;-1.644;2024-01-30T15:06:17;13.20;85.80
12622;DHT22;6376;48.182;-1.644;2024-01-30T15:08:43;13.20;85.80
12622;DHT22;6376;48.182;-1.644;2024-01-30T15:11:10;13.20;85.80
12622;DHT22;6376;48.182;-1.644;2024-01-30T15:13:36;13.20;85.80
12622;DHT22;6376;48.182;-1.644;2024-01-30T15:16:02;13.20;85.80
12622;DHT22;6376;48.182;-1.644;2024-01-30T15:18:30;13.20;85.90
12622;DHT22;6376;48.182;-1.644;2024-01-30T15:20:56;13.10;85.90
12622;DHT22;6376;48.182;-1.644;2024-01-30T15:23:21;13.20;86.80